sensor_id;sensor_type;location;lat;lon;timestamp;temperature;humidity
9103;DHT22;4587;51.434;6.788;2023-05-07T00:01:44;16.60;99.90
9103;DHT22;4587;51.434;6.788;2023-05-07T00:04:10;16.60;99.90
9103;DHT22;4587;51.434;6.788;2023-05-07T00:06:36;16.60;99.90
9103;DHT22;4587;51.434;6.788;2023-05-07T00:09:02;16.60;99.90
9103;DHT22;4587;51.434;6.788;2023-05-07T00:11:28;16.60;99.90
9103;DHT22;4587;51.434;6.788;2023-05-07T00:13:54;16.60;99.90
9103;DHT22;4587;51.434;6.788;2023-05-07T00:16:20;16.60;99.90
9103;DHT22;4587;51.434;6.788;2023-05-07T00:18:45;16.60;99.90
9103;DHT22;4587;51.434;6.788;2023-05-07T00:21:11;16.60;99.90
9103;DHT22;4587;51.434;6.788;2023-05-07T00:23:36;16.60;99.90
9103;DHT22;4587;51.434;6.788;2023-05-07T00:26:03;16.60;99.90
9103;DHT22;4587;51.434;6.788;2023-05-07T00:28:28;16.60;99.90
9103;DHT22;4587;51.434;6.788;2023-05-07T00:30:54;16.50;99.90
9103;DHT22;4587;51.434;6.788;2023-05-07T00:33:20;16.50;99.90
9103;DHT22;4587;51.434;6.788;2023-05-07T00:35:46;16.50;99.90
9103;DHT22;4587;51.434;6.788;2023-05-07T00:38:11;16.50;99.90
9103;DHT22;4587;51.434;6.788;2023-05-07T00:40:37;16.40;99.90
9103;DHT22;4587;51.434;6.788;2023-05-07T00:43:03;16.40;99.90
9103;DHT22;4587;51.434;6.788;2023-05-07T00:45:29;16.40;99.90
9103;DHT22;4587;51.434;6.788;2023-05-07T00:48:00;16.30;99.90
9103;DHT22;4587;51.434;6.788;2023-05-07T00:50:26;16.30;99.90
9103;DHT22;4587;51.434;6.788;2023-05-07T00:52:53;16.20;99.90
9103;DHT22;4587;51.434;6.788;2023-05-07T00:55:18;16.20;99.90
9103;DHT22;4587;51.434;6.788;2023-05-07T00:57:47;16.30;99.90
9103;DHT22;4587;51.434;6.788;2023-05-07T01:00:13;16.30;99.90
9103;DHT22;4587;51.434;6.788;2023-05-07T01:02:39;16.20;99.90
9103;DHT22;4587;51.434;6.788;2023-05-07T01:05:06;16.20;99.90
9103;DHT22;4587;51.434;6.788;2023-05-07T01:07:33;16.20;99.90
9103;DHT22;4587;51.434;6.788;2023-05-07T01:10:00;16.20;99.90
9103;DHT22;4587;51.434;6.788;2023-05-07T01:12:28;16.20;99.90
9103;DHT22;4587;51.434;6.788;2023-05-07T01:14:53;16.20;99.90
9103;DHT22;4587;51.434;6.788;2023-05-07T01:17:19;16.10;99.90
9103;DHT22;4587;51.434;6.788;2023-05-07T01:19:45;16.10;99.90
9103;DHT22;4587;51.434;6.788;2023-05-07T01:22:11;16.10;99.90
9103;DHT22;4587;51.434;6.788;2023-05-07T01:24:38;16.10;99.90
9103;DHT22;4587;51.434;6.788;2023-05-07T01:27:04;16.00;99.90
9103;DHT22;4587;51.434;6.788;2023-05-07T01:29:29;16.00;99.90
9103;DHT22;4587;51.434;6.788;2023-05-07T01:32:00;16.00;99.90
9103;DHT22;4587;51.434;6.788;2023-05-07T01:34:28;16.00;99.90
9103;DHT22;4587;51.434;6.788;2023-05-07T01:36:56;16.00;99.90
9103;DHT22;4587;51.434;6.788;2023-05-07T01:39:25;16.00;99.90
9103;DHT22;4587;51.434;6.788;2023-05-07T01:41:53;16.00;99.90
9103;DHT22;4587;51.434;6.788;2023-05-07T01:44:20;16.00;99.90
9103;DHT22;4587;51.434;6.788;2023-05-07T01:46:46;15.90;99.90
9103;DHT22;4587;51.434;6.788;2023-05-07T01:49:12;15.90;99.90
9103;DHT22;4587;51.434;6.788;2023-05-07T01:51:39;15.90;99.90
9103;DHT22;4587;51.434;6.788;2023-05-07T01:54:05;15.90;99.90
9103;DHT22;4587;51.434;6.788;2023-05-07T01:56:31;15.90;99.90
9103;DHT22;4587;51.434;6.788;2023-05-07T01:58:57;15.90;99.90
9103;DHT22;4587;51.434;6.788;2023-05-07T02:01:23;15.90;99.90
9103;DHT22;4587;51.434;6.788;2023-05-07T02:03:48;15.90;99.90
9103;DHT22;4587;51.434;6.788;2023-05-07T02:06:14;15.90;99.90
9103;DHT22;4587;51.434;6.788;2023-05-07T02:08:40;15.90;99.90
9103;DHT22;4587;51.434;6.788;2023-05-07T02:11:05;15.90;99.90
9103;DHT22;4587;51.434;6.788;2023-05-07T02:13:33;15.80;99.90
9103;DHT22;4587;51.434;6.788;2023-05-07T02:15:59;15.80;99.90
9103;DHT22;4587;51.434;6.788;2023-05-07T02:18:25;15.80;99.90
9103;DHT22;4587;51.434;6.788;2023-05-07T02:20:50;15.80;99.90
9103;DHT22;4587;51.434;6.788;2023-05-07T02:23:16;15.80;99.90
9103;DHT22;4587;51.434;6.788;2023-05-07T02:25:42;15.70;99.90
9103;DHT22;4587;51.434;6.788;2023-05-07T02:28:07;15.70;99.90
9103;DHT22;4587;51.434;6.788;2023-05-07T02:30:33;15.70;99.90
9103;DHT22;4587;51.434;6.788;2023-05-07T02:32:58;15.70;99.90
9103;DHT22;4587;51.434;6.788;2023-05-07T02:35:25;15.70;99.90
9103;DHT22;4587;51.434;6.788;2023-05-07T02:37:50;15.70;99.90
9103;DHT22;4587;51.434;6.788;2023-05-07T02:40:16;15.80;99.90
9103;DHT22;4587;51.434;6.788;2023-05-07T02:42:41;15.70;99.90
9103;DHT22;4587;51.434;6.788;2023-05-07T02:45:07;15.70;99.90
9103;DHT22;4587;51.434;6.788;2023-05-07T02:47:33;15.60;99.90
9103;DHT22;4587;51.434;6.788;2023-05-07T02:49:58;15.60;99.90
9103;DHT22;4587;51.434;6.788;2023-05-07T02:52:24;15.60;99.90
9103;DHT22;4587;51.434;6.788;2023-05-07T02:54:50;15.60;99.90
9103;DHT22;4587;51.434;6.788;2023-05-07T02:57:15;15.70;99.90
9103;DHT22;4587;51.434;6.788;2023-05-07T02:59:42;15.70;99.90
9103;DHT22;4587;51.434;6.788;2023-05-07T03:02:07;15.70;99.90
9103;DHT22;4587;51.434;6.788;2023-05-07T03:04:33;15.60;99.90
9103;DHT22;4587;51.434;6.788;2023-05-07T03:06:58;15.70;99.90
9103;DHT22;4587;51.434;6.788;2023-05-07T03:09:24;15.60;99.90
9103;DHT22;4587;51.434;6.788;2023-05-07T03:11:49;15.60;99.90
9103;DHT22;4587;51.434;6.788;2023-05-07T03:14:15;15.60;99.90
9103;DHT22;4587;51.434;6.788;2023-05-07T03:16:40;15.60;99.90
9103;DHT22;4587;51.434;6.788;2023-05-07T03:19:06;15.60;99.90
9103;DHT22;4587;51.434;6.788;2023-05-07T03:21:32;15.60;99.90
9103;DHT22;4587;51.434;6.788;2023-05-07T03:23:59;15.60;99.90
9103;DHT22;4587;51.434;6.788;2023-05-07T03:26:24;15.60;99.90
9103;DHT22;4587;51.434;6.788;2023-05-07T03:28:51;15.60;99.90
9103;DHT22;4587;51.434;6.788;2023-05-07T03:31:17;15.60;99.90
9103;DHT22;4587;51.434;6.788;2023-05-07T03:33:56;15.60;99.90
9103;DHT22;4587;51.434;6.788;2023-05-07T03:36:22;15.60;99.90
9103;DHT22;4587;51.434;6.788;2023-05-07T03:38:48;15.60;99.90
9103;DHT22;4587;51.434;6.788;2023-05-07T03:41:14;15.60;99.90
9103;DHT22;4587;51.434;6.788;2023-05-07T03:43:40;15.60;99.90
9103;DHT22;4587;51.434;6.788;2023-05-07T03:46:05;15.50;99.90
9103;DHT22;4587;51.434;6.788;2023-05-07T03:48:31;15.50;99.90
9103;DHT22;4587;51.434;6.788;2023-05-07T03:50:57;15.50;99.90
9103;DHT22;4587;51.434;6.788;2023-05-07T03:53:23;15.50;99.90
9103;DHT22;4587;51.434;6.788;2023-05-07T03:55:49;15.50;99.90
9103;DHT22;4587;51.434;6.788;2023-05-07T03:58:15;15.50;99.90
9103;DHT22;4587;51.434;6.788;2023-05-07T04:00:41;15.40;99.90
9103;DHT22;4587;51.434;6.788;2023-05-07T04:03:07;15.40;99.90
9103;DHT22;4587;51.434;6.788;2023-05-07T04:05:32;15.40;99.90
9103;DHT22;4587;51.434;6.788;2023-05-07T04:07:59;15.40;99.90
9103;DHT22;4587;51.434;6.788;2023-05-07T04:10:25;15.50;99.90
9103;DHT22;4587;51.434;6.788;2023-05-07T04:12:50;15.50;99.90
9103;DHT22;4587;51.434;6.788;2023-05-07T04:15:16;15.30;99.90
9103;DHT22;4587;51.434;6.788;2023-05-07T04:17:42;15.30;99.90
9103;DHT22;4587;51.434;6.788;2023-05-07T04:20:14;15.30;99.90
9103;DHT22;4587;51.434;6.788;2023-05-07T04:22:40;15.30;99.90
9103;DHT22;4587;51.434;6.788;2023-05-07T04:25:06;15.30;99.90
9103;DHT22;4587;51.434;6.788;2023-05-07T04:27:33;15.40;99.90
9103;DHT22;4587;51.434;6.788;2023-05-07T04:29:58;15.40;99.90
9103;DHT22;4587;51.434;6.788;2023-05-07T04:32:26;15.40;99.90
9103;DHT22;4587;51.434;6.788;2023-05-07T04:34:52;15.40;99.90
9103;DHT22;4587;51.434;6.788;2023-05-07T04:37:17;15.70;99.90
9103;DHT22;4587;51.434;6.788;2023-05-07T04:39:43;15.50;99.90
9103;DHT22;4587;51.434;6.788;2023-05-07T04:42:09;15.40;99.90
9103;DHT22;4587;51.434;6.788;2023-05-07T04:44:39;15.50;99.90
9103;DHT22;4587;51.434;6.788;2023-05-07T04:47:05;16.60;99.90
9103;DHT22;4587;51.434;6.788;2023-05-07T04:49:31;15.50;99.90
9103;DHT22;4587;51.434;6.788;2023-05-07T04:51:57;15.50;99.90
9103;DHT22;4587;51.434;6.788;2023-05-07T04:54:22;15.70;99.90
9103;DHT22;4587;51.434;6.788;2023-05-07T04:56:48;15.70;99.90
9103;DHT22;4587;51.434;6.788;2023-05-07T04:59:13;15.60;99.90
9103;DHT22;4587;51.434;6.788;2023-05-07T05:01:39;15.60;99.90
9103;DHT22;4587;51.434;6.788;2023-05-07T05:04:05;15.60;99.90
9103;DHT22;4587;51.434;6.788;2023-05-07T05:06:31;15.70;99.90
9103;DHT22;4587;51.434;6.788;2023-05-07T05:08:57;15.80;99.90
9103;DHT22;4587;51.434;6.788;2023-05-07T05:11:23;15.90;99.90
9103;DHT22;4587;51.434;6.788;2023-05-07T05:13:49;15.90;99.90
9103;DHT22;4587;51.434;6.788;2023-05-07T05:16:15;15.90;99.90
9103;DHT22;4587;51.434;6.788;2023-05-07T05:18:41;15.90;99.90
9103;DHT22;4587;51.434;6.788;2023-05-07T05:21:06;16.10;99.90
9103;DHT22;4587;51.434;6.788;2023-05-07T05:23:32;15.90;99.90
9103;DHT22;4587;51.434;6.788;2023-05-07T05:25:58;15.90;99.90
9103;DHT22;4587;51.434;6.788;2023-05-07T05:28:24;16.00;99.90
9103;DHT22;4587;51.434;6.788;2023-05-07T05:30:50;16.00;99.90
9103;DHT22;4587;51.434;6.788;2023-05-07T05:33:15;16.00;99.90
9103;DHT22;4587;51.434;6.788;2023-05-07T05:35:42;16.10;99.90
9103;DHT22;4587;51.434;6.788;2023-05-07T05:38:08;16.20;99.90
9103;DHT22;4587;51.434;6.788;2023-05-07T05:40:33;16.40;99.90
9103;DHT22;4587;51.434;6.788;2023-05-07T05:42:59;16.40;99.90
9103;DHT22;4587;51.434;6.788;2023-05-07T05:45:25;16.60;99.90
9103;DHT22;4587;51.434;6.788;2023-05-07T05:47:51;16.50;99.90
9103;DHT22;4587;51.434;6.788;2023-05-07T05:50:16;16.60;99.90
9103;DHT22;4587;51.434;6.788;2023-05-07T05:52:42;16.60;99.90
9103;DHT22;4587;51.434;6.788;2023-05-07T05:55:08;16.80;99.90
9103;DHT22;4587;51.434;6.788;2023-05-07T05:57:34;16.90;99.90
9103;DHT22;4587;51.434;6.788;2023-05-07T06:00:01;16.90;99.90
9103;DHT22;4587;51.434;6.788;2023-05-07T06:02:27;16.90;99.90
9103;DHT22;4587;51.434;6.788;2023-05-07T06:04:53;17.00;99.90
9103;DHT22;4587;51.434;6.788;2023-05-07T06:07:19;17.20;99.90
9103;DHT22;4587;51.434;6.788;2023-05-07T06:09:44;17.30;99.90
9103;DHT22;4587;51.434;6.788;2023-05-07T06:12:11;17.40;99.90
9103;DHT22;4587;51.434;6.788;2023-05-07T06:14:36;17.60;99.90
9103;DHT22;4587;51.434;6.788;2023-05-07T06:17:02;17.60;99.90
9103;DHT22;4587;51.434;6.788;2023-05-07T06:19:27;17.60;99.90
9103;DHT22;4587;51.434;6.788;2023-05-07T06:21:53;17.70;99.90
9103;DHT22;4587;51.434;6.788;2023-05-07T06:24:19;17.70;99.90
9103;DHT22;4587;51.434;6.788;2023-05-07T06:26:45;17.60;99.90
9103;DHT22;4587;51.434;6.788;2023-05-07T06:29:10;17.70;99.90
9103;DHT22;4587;51.434;6.788;2023-05-07T06:31:36;17.70;99.90
9103;DHT22;4587;51.434;6.788;2023-05-07T06:34:01;17.80;99.90
9103;DHT22;4587;51.434;6.788;2023-05-07T06:36:28;17.70;99.90
9103;DHT22;4587;51.434;6.788;2023-05-07T06:38:53;17.60;99.90
9103;DHT22;4587;51.434;6.788;2023-05-07T06:41:19;17.60;99.90
9103;DHT22;4587;51.434;6.788;2023-05-07T06:43:45;17.60;99.90
9103;DHT22;4587;51.434;6.788;2023-05-07T06:46:11;17.60;99.90
9103;DHT22;4587;51.434;6.788;2023-05-07T06:48:36;17.60;99.90
9103;DHT22;4587;51.434;6.788;2023-05-07T06:51:02;17.60;99.90
9103;DHT22;4587;51.434;6.788;2023-05-07T06:53:28;17.70;99.90
9103;DHT22;4587;51.434;6.788;2023-05-07T06:55:54;17.70;99.90
9103;DHT22;4587;51.434;6.788;2023-05-07T06:58:20;17.60;99.90
9103;DHT22;4587;51.434;6.788;2023-05-07T07:00:45;17.60;99.90
9103;DHT22;4587;51.434;6.788;2023-05-07T07:03:11;17.70;99.90
9103;DHT22;4587;51.434;6.788;2023-05-07T07:05:37;17.80;99.90
9103;DHT22;4587;51.434;6.788;2023-05-07T07:08:02;17.80;99.90
9103;DHT22;4587;51.434;6.788;2023-05-07T07:10:28;18.00;99.90
9103;DHT22;4587;51.434;6.788;2023-05-07T07:12:53;18.20;99.90
9103;DHT22;4587;51.434;6.788;2023-05-07T07:15:19;18.40;99.90
9103;DHT22;4587;51.434;6.788;2023-05-07T07:17:46;18.40;99.90
9103;DHT22;4587;51.434;6.788;2023-05-07T07:20:11;18.50;99.90
9103;DHT22;4587;51.434;6.788;2023-05-07T07:22:37;18.60;99.90
9103;DHT22;4587;51.434;6.788;2023-05-07T07:25:03;18.60;99.90
9103;DHT22;4587;51.434;6.788;2023-05-07T07:27:28;18.70;99.90
9103;DHT22;4587;51.434;6.788;2023-05-07T07:29:54;18.80;99.90
9103;DHT22;4587;51.434;6.788;2023-05-07T07:32:20;19.00;99.90
9103;DHT22;4587;51.434;6.788;2023-05-07T07:34:46;19.30;99.90
9103;DHT22;4587;51.434;6.788;2023-05-07T07:37:11;19.80;99.90
9103;DHT22;4587;51.434;6.788;2023-05-07T07:39:37;20.60;99.90
9103;DHT22;4587;51.434;6.788;2023-05-07T07:42:06;21.20;99.90
9103;DHT22;4587;51.434;6.788;2023-05-07T07:44:32;21.30;99.90
9103;DHT22;4587;51.434;6.788;2023-05-07T07:46:57;21.40;99.90
9103;DHT22;4587;51.434;6.788;2023-05-07T07:49:23;21.50;99.90
9103;DHT22;4587;51.434;6.788;2023-05-07T07:51:48;21.70;99.90
9103;DHT22;4587;51.434;6.788;2023-05-07T07:54:14;22.00;99.90
9103;DHT22;4587;51.434;6.788;2023-05-07T07:56:39;22.10;99.90
9103;DHT22;4587;51.434;6.788;2023-05-07T07:59:05;22.20;99.90
9103;DHT22;4587;51.434;6.788;2023-05-07T08:01:31;22.50;99.90
9103;DHT22;4587;51.434;6.788;2023-05-07T08:03:56;23.10;99.90
9103;DHT22;4587;51.434;6.788;2023-05-07T08:06:25;23.50;99.90
9103;DHT22;4587;51.434;6.788;2023-05-07T08:08:51;23.60;99.90
9103;DHT22;4587;51.434;6.788;2023-05-07T08:11:17;23.30;99.90
9103;DHT22;4587;51.434;6.788;2023-05-07T08:13:42;23.10;99.90
9103;DHT22;4587;51.434;6.788;2023-05-07T08:16:08;23.00;99.90
9103;DHT22;4587;51.434;6.788;2023-05-07T08:18:34;22.70;99.90
9103;DHT22;4587;51.434;6.788;2023-05-07T08:21:00;22.60;99.90
9103;DHT22;4587;51.434;6.788;2023-05-07T08:23:26;22.70;99.90
9103;DHT22;4587;51.434;6.788;2023-05-07T08:25:51;22.60;99.90
9103;DHT22;4587;51.434;6.788;2023-05-07T08:28:17;22.40;99.90
9103;DHT22;4587;51.434;6.788;2023-05-07T08:30:43;22.30;99.90
9103;DHT22;4587;51.434;6.788;2023-05-07T08:33:09;22.00;99.90
9103;DHT22;4587;51.434;6.788;2023-05-07T08:35:35;21.70;99.90
9103;DHT22;4587;51.434;6.788;2023-05-07T08:38:00;21.60;99.90
9103;DHT22;4587;51.434;6.788;2023-05-07T08:40:26;21.60;99.90
9103;DHT22;4587;51.434;6.788;2023-05-07T08:42:53;21.70;99.90
9103;DHT22;4587;51.434;6.788;2023-05-07T08:45:20;21.90;99.90
9103;DHT22;4587;51.434;6.788;2023-05-07T08:47:58;22.20;99.90
9103;DHT22;4587;51.434;6.788;2023-05-07T08:50:24;22.40;99.90
9103;DHT22;4587;51.434;6.788;2023-05-07T08:52:50;22.60;99.90
9103;DHT22;4587;51.434;6.788;2023-05-07T08:55:16;22.90;99.90
9103;DHT22;4587;51.434;6.788;2023-05-07T08:57:42;22.80;99.90
9103;DHT22;4587;51.434;6.788;2023-05-07T09:00:08;22.90;99.90
9103;DHT22;4587;51.434;6.788;2023-05-07T09:02:36;23.10;99.90
9103;DHT22;4587;51.434;6.788;2023-05-07T09:05:02;23.10;99.90
9103;DHT22;4587;51.434;6.788;2023-05-07T09:07:28;23.20;99.90
9103;DHT22;4587;51.434;6.788;2023-05-07T09:09:55;23.30;99.90
9103;DHT22;4587;51.434;6.788;2023-05-07T09:12:22;23.00;99.90
9103;DHT22;4587;51.434;6.788;2023-05-07T09:14:48;23.60;99.90
9103;DHT22;4587;51.434;6.788;2023-05-07T09:17:15;23.70;99.90
9103;DHT22;4587;51.434;6.788;2023-05-07T09:19:44;23.80;99.90
9103;DHT22;4587;51.434;6.788;2023-05-07T09:22:10;23.80;99.90
9103;DHT22;4587;51.434;6.788;2023-05-07T09:24:36;23.80;99.90
9103;DHT22;4587;51.434;6.788;2023-05-07T09:27:04;23.80;99.90
9103;DHT22;4587;51.434;6.788;2023-05-07T09:29:30;23.20;99.90
9103;DHT22;4587;51.434;6.788;2023-05-07T09:32:03;23.80;99.90
9103;DHT22;4587;51.434;6.788;2023-05-07T09:34:30;23.90;99.90
9103;DHT22;4587;51.434;6.788;2023-05-07T09:36:56;23.90;99.90
9103;DHT22;4587;51.434;6.788;2023-05-07T09:39:23;24.00;99.90
9103;DHT22;4587;51.434;6.788;2023-05-07T09:41:49;23.90;99.90
9103;DHT22;4587;51.434;6.788;2023-05-07T09:44:16;23.90;99.90
9103;DHT22;4587;51.434;6.788;2023-05-07T09:46:43;24.10;99.90
9103;DHT22;4587;51.434;6.788;2023-05-07T09:49:15;24.10;99.90
9103;DHT22;4587;51.434;6.788;2023-05-07T09:51:49;24.10;99.90
9103;DHT22;4587;51.434;6.788;2023-05-07T09:54:16;24.30;99.90
9103;DHT22;4587;51.434;6.788;2023-05-07T09:56:43;24.30;99.90
9103;DHT22;4587;51.434;6.788;2023-05-07T09:59:15;24.20;99.90
9103;DHT22;4587;51.434;6.788;2023-05-07T10:01:42;24.20;99.90
9103;DHT22;4587;51.434;6.788;2023-05-07T10:04:09;24.40;99.90
9103;DHT22;4587;51.434;6.788;2023-05-07T10:06:36;24.50;99.90
9103;DHT22;4587;51.434;6.788;2023-05-07T10:09:03;23.50;99.90
9103;DHT22;4587;51.434;6.788;2023-05-07T10:11:34;24.70;99.90
9103;DHT22;4587;51.434;6.788;2023-05-07T10:14:02;24.50;99.90
9103;DHT22;4587;51.434;6.788;2023-05-07T10:16:31;24.30;99.90
9103;DHT22;4587;51.434;6.788;2023-05-07T10:18:58;23.50;99.90
9103;DHT22;4587;51.434;6.788;2023-05-07T10:21:26;24.40;99.90
9103;DHT22;4587;51.434;6.788;2023-05-07T10:24:04;24.20;99.90
9103;DHT22;4587;51.434;6.788;2023-05-07T10:26:32;24.20;99.90
9103;DHT22;4587;51.434;6.788;2023-05-07T10:29:05;24.00;99.90
9103;DHT22;4587;51.434;6.788;2023-05-07T10:34:10;24.00;99.90
9103;DHT22;4587;51.434;6.788;2023-05-07T10:36:36;23.90;99.90
9103;DHT22;4587;51.434;6.788;2023-05-07T10:39:02;24.10;99.90
9103;DHT22;4587;51.434;6.788;2023-05-07T10:41:28;24.20;99.90
9103;DHT22;4587;51.434;6.788;2023-05-07T10:43:53;24.20;99.90
9103;DHT22;4587;51.434;6.788;2023-05-07T10:46:22;24.20;99.90
9103;DHT22;4587;51.434;6.788;2023-05-07T10:51:26;24.50;99.90
9103;DHT22;4587;51.434;6.788;2023-05-07T10:56:37;24.30;99.90
9103;DHT22;4587;51.434;6.788;2023-05-07T11:01:54;24.20;99.90
9103;DHT22;4587;51.434;6.788;2023-05-07T11:04:20;24.40;99.90
9103;DHT22;4587;51.434;6.788;2023-05-07T11:15:10;24.20;99.90
9103;DHT22;4587;51.434;6.788;2023-05-07T11:17:56;24.10;99.90
9103;DHT22;4587;51.434;6.788;2023-05-07T11:20:48;24.00;99.90
9103;DHT22;4587;51.434;6.788;2023-05-07T11:28:30;23.80;99.90
9103;DHT22;4587;51.434;6.788;2023-05-07T11:30:56;23.90;99.90
9103;DHT22;4587;51.434;6.788;2023-05-07T11:33:22;23.50;99.90
9103;DHT22;4587;51.434;6.788;2023-05-07T11:35:48;23.50;99.90
9103;DHT22;4587;51.434;6.788;2023-05-07T11:40:58;23.70;99.90
9103;DHT22;4587;51.434;6.788;2023-05-07T11:43:26;23.60;99.90
9103;DHT22;4587;51.434;6.788;2023-05-07T11:45:52;23.60;99.90
9103;DHT22;4587;51.434;6.788;2023-05-07T11:48:18;23.60;99.90
9103;DHT22;4587;51.434;6.788;2023-05-07T11:50:54;23.70;99.90
9103;DHT22;4587;51.434;6.788;2023-05-07T11:53:25;23.70;99.90
9103;DHT22;4587;51.434;6.788;2023-05-07T11:55:57;23.90;99.90
9103;DHT22;4587;51.434;6.788;2023-05-07T11:58:24;23.80;99.90
9103;DHT22;4587;51.434;6.788;2023-05-07T12:00:50;23.80;99.90
9103;DHT22;4587;51.434;6.788;2023-05-07T12:03:16;23.90;99.90
9103;DHT22;4587;51.434;6.788;2023-05-07T12:05:44;23.70;99.90
9103;DHT22;4587;51.434;6.788;2023-05-07T12:08:17;23.80;99.90
9103;DHT22;4587;51.434;6.788;2023-05-07T12:10:43;23.70;99.90
9103;DHT22;4587;51.434;6.788;2023-05-07T12:15:42;23.70;99.90
9103;DHT22;4587;51.434;6.788;2023-05-07T12:18:08;23.60;99.90
9103;DHT22;4587;51.434;6.788;2023-05-07T12:20:35;23.60;99.90
9103;DHT22;4587;51.434;6.788;2023-05-07T12:23:02;23.70;99.90
9103;DHT22;4587;51.434;6.788;2023-05-07T12:25:30;23.50;99.90
9103;DHT22;4587;51.434;6.788;2023-05-07T12:27:56;23.40;99.90
9103;DHT22;4587;51.434;6.788;2023-05-07T12:30:24;23.40;99.90
9103;DHT22;4587;51.434;6.788;2023-05-07T12:32:53;23.30;99.90
9103;DHT22;4587;51.434;6.788;2023-05-07T12:35:26;23.40;99.90
9103;DHT22;4587;51.434;6.788;2023-05-07T12:40:46;23.20;99.90
9103;DHT22;4587;51.434;6.788;2023-05-07T12:43:20;23.20;99.90
9103;DHT22;4587;51.434;6.788;2023-05-07T12:45:50;23.20;99.90
9103;DHT22;4587;51.434;6.788;2023-05-07T12:48:15;23.00;99.90
9103;DHT22;4587;51.434;6.788;2023-05-07T12:50:42;23.20;99.90
9103;DHT22;4587;51.434;6.788;2023-05-07T12:53:11;23.20;99.90
9103;DHT22;4587;51.434;6.788;2023-05-07T12:55:45;23.10;99.90
9103;DHT22;4587;51.434;6.788;2023-05-07T12:58:33;23.00;99.90
9103;DHT22;4587;51.434;6.788;2023-05-07T13:01:01;23.00;99.90
9103;DHT22;4587;51.434;6.788;2023-05-07T13:03:31;23.50;99.90
9103;DHT22;4587;51.434;6.788;2023-05-07T13:06:05;22.90;99.90
9103;DHT22;4587;51.434;6.788;2023-05-07T13:08:32;22.80;99.90
9103;DHT22;4587;51.434;6.788;2023-05-07T13:10:59;22.80;99.90
9103;DHT22;4587;51.434;6.788;2023-05-07T13:13:25;22.40;99.90
9103;DHT22;4587;51.434;6.788;2023-05-07T13:15:51;22.60;99.90
9103;DHT22;4587;51.434;6.788;2023-05-07T13:18:17;22.50;99.90
9103;DHT22;4587;51.434;6.788;2023-05-07T13:20:43;22.40;99.90
9103;DHT22;4587;51.434;6.788;2023-05-07T13:23:08;22.40;99.90
9103;DHT22;4587;51.434;6.788;2023-05-07T13:25:34;22.30;99.90
9103;DHT22;4587;51.434;6.788;2023-05-07T13:28:00;22.20;99.90
9103;DHT22;4587;51.434;6.788;2023-05-07T13:30:25;22.20;99.90
9103;DHT22;4587;51.434;6.788;2023-05-07T13:32:53;22.00;99.90
9103;DHT22;4587;51.434;6.788;2023-05-07T13:35:20;21.90;99.90
9103;DHT22;4587;51.434;6.788;2023-05-07T13:37:46;21.60;99.90
9103;DHT22;4587;51.434;6.788;2023-05-07T13:42:39;21.40;99.90
9103;DHT22;4587;51.434;6.788;2023-05-07T13:45:05;21.50;99.90
9103;DHT22;4587;51.434;6.788;2023-05-07T13:47:31;21.50;99.90
9103;DHT22;4587;51.434;6.788;2023-05-07T13:49:56;21.40;99.90
9103;DHT22;4587;51.434;6.788;2023-05-07T13:52:22;21.40;99.90
9103;DHT22;4587;51.434;6.788;2023-05-07T13:54:48;21.30;99.90
9103;DHT22;4587;51.434;6.788;2023-05-07T13:57:13;21.00;99.90
9103;DHT22;4587;51.434;6.788;2023-05-07T13:59:40;20.90;99.90
9103;DHT22;4587;51.434;6.788;2023-05-07T14:02:05;21.00;99.90
9103;DHT22;4587;51.434;6.788;2023-05-07T14:04:31;20.80;99.90
9103;DHT22;4587;51.434;6.788;2023-05-07T14:06:57;21.10;99.90
9103;DHT22;4587;51.434;6.788;2023-05-07T14:09:22;20.80;99.90
9103;DHT22;4587;51.434;6.788;2023-05-07T14:11:48;20.70;99.90
9103;DHT22;4587;51.434;6.788;2023-05-07T14:14:17;20.80;99.90
9103;DHT22;4587;51.434;6.788;2023-05-07T14:16:42;20.70;99.90
9103;DHT22;4587;51.434;6.788;2023-05-07T14:19:08;20.60;99.90
9103;DHT22;4587;51.434;6.788;2023-05-07T14:21:33;20.60;99.90
9103;DHT22;4587;51.434;6.788;2023-05-07T14:23:59;20.50;99.90
9103;DHT22;4587;51.434;6.788;2023-05-07T14:26:25;20.50;99.90
9103;DHT22;4587;51.434;6.788;2023-05-07T14:28:52;20.50;99.90
9103;DHT22;4587;51.434;6.788;2023-05-07T14:31:20;20.40;99.90
9103;DHT22;4587;51.434;6.788;2023-05-07T14:33:46;20.40;99.90
9103;DHT22;4587;51.434;6.788;2023-05-07T14:36:11;20.40;99.90
9103;DHT22;4587;51.434;6.788;2023-05-07T14:38:37;20.30;99.90
9103;DHT22;4587;51.434;6.788;2023-05-07T14:41:03;20.10;99.90
9103;DHT22;4587;51.434;6.788;2023-05-07T14:43:29;20.10;99.90
9103;DHT22;4587;51.434;6.788;2023-05-07T14:45:54;20.10;99.90
9103;DHT22;4587;51.434;6.788;2023-05-07T14:48:20;20.00;99.90
9103;DHT22;4587;51.434;6.788;2023-05-07T14:50:47;19.90;99.90
9103;DHT22;4587;51.434;6.788;2023-05-07T14:53:13;20.00;99.90
9103;DHT22;4587;51.434;6.788;2023-05-07T14:55:39;19.90;99.90
9103;DHT22;4587;51.434;6.788;2023-05-07T14:58:04;19.80;99.90
9103;DHT22;4587;51.434;6.788;2023-05-07T15:00:30;19.70;99.90
9103;DHT22;4587;51.434;6.788;2023-05-07T15:03:06;19.70;99.90
9103;DHT22;4587;51.434;6.788;2023-05-07T15:05:33;19.70;99.90
9103;DHT22;4587;51.434;6.788;2023-05-07T15:07:58;19.70;99.90
9103;DHT22;4587;51.434;6.788;2023-05-07T15:10:24;19.70;99.90
9103;DHT22;4587;51.434;6.788;2023-05-07T15:12:50;19.70;99.90
9103;DHT22;4587;51.434;6.788;2023-05-07T15:15:15;19.70;99.90
9103;DHT22;4587;51.434;6.788;2023-05-07T15:17:41;19.60;99.90
9103;DHT22;4587;51.434;6.788;2023-05-07T15:20:07;19.60;99.90
9103;DHT22;4587;51.434;6.788;2023-05-07T15:22:33;19.50;99.90
9103;DHT22;4587;51.434;6.788;2023-05-07T15:25:01;19.40;99.90
9103;DHT22;4587;51.434;6.788;2023-05-07T15:27:27;19.50;99.90
9103;DHT22;4587;51.434;6.788;2023-05-07T15:29:52;19.40;99.90
9103;DHT22;4587;51.434;6.788;2023-05-07T15:32:18;19.00;99.90
9103;DHT22;4587;51.434;6.788;2023-05-07T15:34:43;19.50;99.90
9103;DHT22;4587;51.434;6.788;2023-05-07T15:37:09;19.50;99.90
9103;DHT22;4587;51.434;6.788;2023-05-07T15:39:35;19.50;99.90
9103;DHT22;4587;51.434;6.788;2023-05-07T15:42:00;19.50;99.90
9103;DHT22;4587;51.434;6.788;2023-05-07T15:44:26;19.60;99.90
9103;DHT22;4587;51.434;6.788;2023-05-07T15:46:54;19.50;99.90
9103;DHT22;4587;51.434;6.788;2023-05-07T15:49:20;19.50;99.90
9103;DHT22;4587;51.434;6.788;2023-05-07T15:51:49;19.50;99.90
9103;DHT22;4587;51.434;6.788;2023-05-07T15:54:16;19.60;99.90
9103;DHT22;4587;51.434;6.788;2023-05-07T15:56:45;19.60;99.90
9103;DHT22;4587;51.434;6.788;2023-05-07T15:59:11;19.60;99.90
9103;DHT22;4587;51.434;6.788;2023-05-07T16:01:37;19.60;99.90
9103;DHT22;4587;51.434;6.788;2023-05-07T16:04:03;19.70;99.90
9103;DHT22;4587;51.434;6.788;2023-05-07T16:06:29;19.70;99.90
9103;DHT22;4587;51.434;6.788;2023-05-07T16:08:55;19.70;99.90
9103;DHT22;4587;51.434;6.788;2023-05-07T16:11:21;19.80;99.90
9103;DHT22;4587;51.434;6.788;2023-05-07T16:13:47;19.80;99.90
9103;DHT22;4587;51.434;6.788;2023-05-07T16:16:12;19.80;99.90
9103;DHT22;4587;51.434;6.788;2023-05-07T16:18:38;19.90;99.90
9103;DHT22;4587;51.434;6.788;2023-05-07T16:21:04;19.90;99.90
9103;DHT22;4587;51.434;6.788;2023-05-07T16:23:29;20.00;99.90
9103;DHT22;4587;51.434;6.788;2023-05-07T16:25:55;20.10;99.90
9103;DHT22;4587;51.434;6.788;2023-05-07T16:30:47;19.90;99.90
9103;DHT22;4587;51.434;6.788;2023-05-07T16:33:13;20.10;99.90
9103;DHT22;4587;51.434;6.788;2023-05-07T16:35:39;20.10;99.90